createdAt,value
2018-01-05T05:00:45.252Z,0
2018-01-05T05:01:10.746Z,0
2018-01-05T05:01:36.239Z,0
2018-01-05T05:02:01.737Z,0
2018-01-05T05:02:27.239Z,0
2018-01-05T05:02:52.734Z,0
2018-01-05T05:03:18.178Z,0
2018-01-05T05:03:43.666Z,0
2018-01-05T05:04:09.131Z,0
2018-01-05T05:04:34.631Z,0
2018-01-05T05:05:00.104Z,0
2018-01-05T05:05:25.601Z,0
2018-01-05T05:05:51.121Z,0
2018-01-05T05:06:16.612Z,0
2018-01-05T05:06:42.112Z,0
2018-01-05T05:07:07.602Z,0
2018-01-05T05:07:33.105Z,0
2018-01-05T05:07:58.608Z,0
2018-01-05T05:08:24.072Z,0
2018-01-05T05:08:49.569Z,0
2018-01-05T05:09:15.055Z,0
2018-01-05T05:09:40.564Z,0
2018-01-05T05:10:06.072Z,0
2018-01-05T05:10:31.631Z,0
2018-01-05T05:10:57.134Z,0
2018-01-05T05:11:22.637Z,0
2018-01-05T05:11:48.087Z,0
2018-01-05T05:12:13.582Z,0
2018-01-05T05:12:39.079Z,0
2018-01-05T05:13:04.647Z,0
2018-01-05T05:13:30.170Z,0
2018-01-05T05:13:55.684Z,0
2018-01-05T05:14:21.169Z,0
2018-01-05T05:14:46.673Z,0
2018-01-05T05:15:12.157Z,0
2018-01-05T05:16:36.164Z,0
2018-01-05T05:17:01.650Z,0
2018-01-05T05:17:27.124Z,0
2018-01-05T05:17:52.601Z,0
2018-01-05T05:18:18.102Z,0
2018-01-05T05:18:43.612Z,0
2018-01-05T05:19:09.083Z,0
2018-01-05T05:19:34.566Z,0
2018-01-05T05:20:00.128Z,0
2018-01-05T05:20:25.694Z,0
2018-01-05T05:20:51.164Z,0
2018-01-05T05:21:16.631Z,0
2018-01-05T05:21:42.110Z,0
2018-01-05T05:22:07.644Z,0
2018-01-05T05:22:33.108Z,0
2018-01-05T05:23:36.776Z,0
2018-01-05T05:24:02.301Z,0
2018-01-05T05:24:27.751Z,0
2018-01-05T05:24:53.254Z,0
2018-01-05T05:25:18.835Z,0
2018-01-05T05:25:44.404Z,0
2018-01-05T05:26:10.142Z,0
2018-01-05T05:26:35.672Z,0
2018-01-05T05:27:01.166Z,0
2018-01-05T05:27:26.641Z,0
2018-01-05T05:27:52.172Z,0
2018-01-05T05:28:17.633Z,0
2018-01-05T05:28:43.149Z,0
2018-01-05T05:29:08.773Z,0
2018-01-05T05:29:34.337Z,0
2018-01-05T05:30:00.165Z,0
2018-01-05T05:30:26.110Z,0
2018-01-05T05:30:51.519Z,0
2018-01-05T05:31:17.106Z,0
2018-01-05T05:31:43.160Z,0
2018-01-05T05:32:08.716Z,0
2018-01-05T05:32:34.292Z,0
2018-01-05T05:32:59.699Z,0
2018-01-05T05:33:25.186Z,0
2018-01-05T05:33:50.681Z,0
2018-01-05T05:34:16.132Z,0
2018-01-05T05:34:41.631Z,0
2018-01-05T05:35:07.127Z,0
2018-01-05T05:35:32.623Z,0
2018-01-05T05:35:58.116Z,0
2018-01-05T05:36:23.568Z,0
2018-01-05T05:36:49.062Z,0
2018-01-05T05:37:14.535Z,0
2018-01-05T05:37:40.054Z,0
2018-01-05T05:38:05.554Z,0
2018-01-05T05:38:31.047Z,0
2018-01-05T05:38:56.528Z,0
2018-01-05T05:39:22.022Z,0
2018-01-05T05:39:47.509Z,0
2018-01-05T05:40:12.983Z,0
2018-01-05T05:40:38.530Z,0
2018-01-05T05:41:04.035Z,0
2018-01-05T05:41:29.497Z,0
2018-01-05T05:41:54.974Z,0
2018-01-05T05:42:20.462Z,0
2018-01-05T05:42:45.956Z,0
2018-01-05T05:43:11.424Z,0
2018-01-05T05:43:36.957Z,0
2018-01-05T05:44:02.435Z,0
2018-01-05T05:44:27.945Z,0
2018-01-05T05:44:53.426Z,0
2018-01-05T05:45:18.930Z,0
2018-01-05T05:45:44.445Z,0
2018-01-05T05:46:10.219Z,0
2018-01-05T05:46:35.674Z,0
2018-01-05T05:47:01.162Z,0
2018-01-05T05:47:26.667Z,0
2018-01-05T05:47:52.147Z,0
2018-01-05T05:48:17.593Z,0
2018-01-05T05:48:43.136Z,0
2018-01-05T05:49:08.593Z,0
2018-01-05T05:49:34.226Z,0
2018-01-05T05:49:59.723Z,0
2018-01-05T05:50:25.196Z,0
2018-01-05T05:50:50.702Z,0
2018-01-05T05:51:16.142Z,0
2018-01-05T05:51:41.616Z,0
2018-01-05T05:52:07.093Z,0
2018-01-05T05:52:32.544Z,0
2018-01-05T05:52:58.048Z,0
2018-01-05T05:53:23.494Z,0
2018-01-05T05:53:48.943Z,0
2018-01-05T05:54:14.533Z,0
2018-01-05T05:54:40.017Z,0
2018-01-05T05:55:05.494Z,0
2018-01-05T05:55:30.932Z,0
2018-01-05T05:55:56.431Z,0
2018-01-05T05:56:21.890Z,0
2018-01-05T05:56:47.364Z,0
2018-01-05T05:57:12.822Z,0
2018-01-05T05:57:38.286Z,0
2018-01-05T05:58:03.768Z,0
2018-01-05T05:58:29.212Z,0
2018-01-05T05:58:54.701Z,0
2018-01-05T05:59:20.208Z,0
2018-01-05T05:59:45.651Z,0
2018-01-05T06:00:11.128Z,0
2018-01-05T06:00:36.628Z,0
2018-01-05T06:01:02.105Z,0
2018-01-05T06:01:27.560Z,0
2018-01-05T06:01:53.171Z,0
2018-01-05T06:02:18.660Z,0
2018-01-05T06:02:44.217Z,0
2018-01-05T06:03:09.790Z,0
2018-01-05T06:03:35.186Z,0
2018-01-05T06:04:00.668Z,0
2018-01-05T06:04:26.096Z,0
2018-01-05T06:04:51.577Z,0
2018-01-05T06:05:17.011Z,0
2018-01-05T06:05:42.476Z,0
2018-01-05T06:06:07.939Z,0
2018-01-05T06:06:33.525Z,0
2018-01-05T06:06:58.974Z,0
2018-01-05T06:07:24.395Z,0
2018-01-05T06:07:49.884Z,0
2018-01-05T06:08:15.357Z,0
2018-01-05T06:08:40.828Z,0
2018-01-05T06:09:06.308Z,0
2018-01-05T06:09:31.757Z,0
2018-01-05T06:09:57.207Z,0
2018-01-05T06:10:22.681Z,0
2018-01-05T06:10:48.155Z,0
2018-01-05T06:11:13.634Z,0
2018-01-05T06:11:39.086Z,0
2018-01-05T06:12:04.572Z,0
2018-01-05T06:12:30.029Z,0
2018-01-05T06:12:55.502Z,0
2018-01-05T06:13:20.990Z,0
2018-01-05T06:13:46.480Z,0
2018-01-05T06:14:11.974Z,0
2018-01-05T06:14:37.469Z,0
2018-01-05T06:15:02.922Z,0
2018-01-05T06:15:28.448Z,0
2018-01-05T06:15:53.909Z,0
2018-01-05T06:16:19.390Z,0
2018-01-05T06:16:44.970Z,0
2018-01-05T06:17:10.426Z,0
2018-01-05T06:17:35.907Z,0
2018-01-05T06:18:01.364Z,0
2018-01-05T06:18:26.853Z,0
2018-01-05T06:18:52.310Z,0
2018-01-05T06:19:17.768Z,0
2018-01-05T06:19:43.238Z,0
2018-01-05T06:20:46.856Z,0
2018-01-05T06:21:12.326Z,0
2018-01-05T06:21:37.845Z,0
2018-01-05T06:22:03.340Z,0
2018-01-05T06:22:28.797Z,0
2018-01-05T06:22:54.294Z,0
2018-01-05T06:23:19.789Z,0
2018-01-05T06:23:45.265Z,0
2018-01-05T06:24:10.736Z,0
2018-01-05T06:24:36.280Z,0
2018-01-05T06:25:01.754Z,0
2018-01-05T06:25:27.234Z,0
2018-01-05T06:25:52.710Z,0
2018-01-05T06:26:18.208Z,0
2018-01-05T06:26:43.713Z,0
2018-01-05T06:27:09.186Z,0
2018-01-05T06:27:34.680Z,0
2018-01-05T06:28:00.229Z,0
2018-01-05T06:28:25.713Z,0
2018-01-05T06:29:39.521Z,0
2018-01-05T06:30:04.994Z,0
2018-01-05T06:30:30.505Z,0
2018-01-05T06:30:56.000Z,0
2018-01-05T06:31:21.495Z,0
2018-01-05T06:31:46.923Z,0
2018-01-05T06:32:12.424Z,0
2018-01-05T06:32:37.880Z,0
2018-01-05T06:33:03.381Z,0
2018-01-05T06:33:28.903Z,0
2018-01-05T06:33:54.369Z,0
2018-01-05T06:34:19.884Z,0
2018-01-05T06:34:45.377Z,0
2018-01-05T06:35:48.986Z,0
2018-01-05T06:36:14.468Z,0
2018-01-05T06:36:39.964Z,0
2018-01-05T06:37:05.446Z,0
2018-01-05T06:37:30.910Z,0
2018-01-05T06:37:56.380Z,0
2018-01-05T06:38:21.916Z,0
2018-01-05T06:38:47.424Z,0
2018-01-05T06:39:12.923Z,0
2018-01-05T06:39:38.464Z,0
2018-01-05T06:40:03.926Z,0
2018-01-05T06:40:29.393Z,0
2018-01-05T06:40:54.866Z,0
2018-01-05T06:41:20.398Z,0
2018-01-05T06:41:45.918Z,0
2018-01-05T06:42:11.363Z,0
2018-01-05T06:42:36.870Z,0
2018-01-05T06:43:02.351Z,0
2018-01-05T06:43:27.837Z,0
2018-01-05T06:43:53.295Z,0
2018-01-05T06:44:18.823Z,0
2018-01-05T06:44:44.323Z,0
2018-01-05T06:45:09.796Z,0
2018-01-05T06:45:35.337Z,0
2018-01-05T06:46:00.828Z,0
2018-01-05T06:46:26.325Z,0
2018-01-05T06:46:51.768Z,0
2018-01-05T06:47:17.311Z,0
2018-01-05T06:47:42.796Z,0
2018-01-05T06:48:08.266Z,0
2018-01-05T06:48:33.760Z,0
2018-01-05T06:48:59.250Z,0
2018-01-05T06:49:24.805Z,0
2018-01-05T06:49:50.280Z,0
2018-01-05T06:50:15.820Z,0
2018-01-05T06:50:41.273Z,0
2018-01-05T06:51:06.758Z,0
2018-01-05T06:51:32.285Z,0
2018-01-05T06:51:57.742Z,0
2018-01-05T06:52:23.264Z,0
2018-01-05T06:52:48.743Z,0
2018-01-05T06:53:14.271Z,0
2018-01-05T06:53:39.764Z,0
2018-01-05T06:54:05.246Z,0
2018-01-05T06:54:30.725Z,0
2018-01-05T06:54:56.202Z,0
2018-01-05T06:55:21.705Z,0
2018-01-05T06:55:47.222Z,0
2018-01-05T06:56:12.679Z,0
2018-01-05T06:56:38.180Z,0
2018-01-05T06:57:03.661Z,0
2018-01-05T06:57:29.128Z,0
2018-01-05T06:57:54.603Z,0
2018-01-05T06:58:20.113Z,0
2018-01-05T06:58:45.602Z,0
2018-01-05T07:00:04.562Z,0
2018-01-05T07:00:30.038Z,0
2018-01-05T07:00:55.507Z,0
2018-01-05T07:01:21.051Z,0
2018-01-05T07:01:46.513Z,0
2018-01-05T07:02:11.989Z,0
2018-01-05T07:02:37.499Z,0
2018-01-05T07:03:03.004Z,0
2018-01-05T07:03:28.494Z,0
2018-01-05T07:03:54.003Z,0
2018-01-05T07:04:19.522Z,0
2018-01-05T07:04:45.014Z,0
2018-01-05T07:05:10.484Z,0
2018-01-05T07:05:35.967Z,0
2018-01-05T07:06:39.591Z,0
2018-01-05T07:07:05.109Z,0
2018-01-05T07:07:30.614Z,0
2018-01-05T07:07:56.148Z,4
2018-01-05T07:08:21.652Z,4
2018-01-05T07:08:47.097Z,0
2018-01-05T07:09:12.589Z,0
2018-01-05T07:09:38.083Z,0
2018-01-05T07:10:03.573Z,0
2018-01-05T07:10:29.051Z,0
2018-01-05T07:10:54.535Z,4
2018-01-05T07:11:19.973Z,4
2018-01-05T07:11:45.483Z,4
2018-01-05T07:12:10.966Z,4
2018-01-05T07:12:36.450Z,4
2018-01-05T07:13:01.944Z,4
2018-01-05T07:14:26.096Z,4
2018-01-05T07:14:51.577Z,4
2018-01-05T07:15:17.079Z,4
2018-01-05T07:15:42.561Z,0
2018-01-05T07:16:08.053Z,4
2018-01-05T07:16:33.517Z,4
2018-01-05T07:16:59.007Z,4
2018-01-05T07:17:24.494Z,8
2018-01-05T07:17:49.962Z,4
2018-01-05T07:18:15.413Z,8
2018-01-05T07:18:40.906Z,8
2018-01-05T07:19:06.380Z,12
2018-01-05T07:19:31.834Z,8
2018-01-05T07:19:57.312Z,8
2018-01-05T07:20:22.890Z,12
2018-01-05T07:20:48.389Z,12
2018-01-05T07:21:13.947Z,12
2018-01-05T07:21:39.445Z,12
2018-01-05T07:22:04.899Z,12
2018-01-05T07:22:30.425Z,16
2018-01-05T07:22:55.935Z,16
2018-01-05T07:23:21.422Z,12
2018-01-05T07:23:46.926Z,16
2018-01-05T07:24:12.396Z,16
2018-01-05T07:24:37.876Z,20
2018-01-05T07:25:03.369Z,20
2018-01-05T07:25:28.834Z,16
2018-01-05T07:25:54.310Z,16
2018-01-05T07:26:19.847Z,16
2018-01-05T07:26:45.322Z,20
2018-01-05T07:27:10.846Z,16
2018-01-05T07:27:36.332Z,20
2018-01-05T07:28:01.830Z,24
2018-01-05T07:28:27.339Z,24
2018-01-05T07:28:52.837Z,28
2018-01-05T07:29:18.373Z,32
2018-01-05T07:29:43.921Z,36
2018-01-05T07:30:09.395Z,40
2018-01-05T07:30:34.872Z,40
2018-01-05T07:31:00.352Z,36
2018-01-05T07:31:25.846Z,36
2018-01-05T07:31:51.322Z,44
2018-01-05T07:32:16.801Z,48
2018-01-05T07:32:42.257Z,52
2018-01-05T07:33:07.711Z,48
2018-01-05T07:33:33.213Z,44
2018-01-05T07:33:58.709Z,44
2018-01-05T07:34:24.179Z,40
2018-01-05T07:34:49.669Z,36
2018-01-05T07:35:15.167Z,40
2018-01-05T07:35:40.651Z,36
2018-01-05T07:36:06.158Z,40
2018-01-05T07:36:31.662Z,48
2018-01-05T07:36:57.154Z,52
2018-01-05T07:37:22.652Z,52
2018-01-05T07:37:48.089Z,44
2018-01-05T07:38:13.579Z,56
2018-01-05T07:38:39.080Z,68
2018-01-05T07:39:04.581Z,72
2018-01-05T07:39:30.072Z,76
2018-01-05T07:40:49.027Z,56
2018-01-05T07:41:14.515Z,68
2018-01-05T07:41:40.040Z,88
2018-01-05T07:42:05.521Z,124
2018-01-05T07:42:31.050Z,132
2018-01-05T07:42:56.530Z,116
2018-01-05T07:43:22.069Z,128
2018-01-05T07:43:47.585Z,152
2018-01-05T07:44:13.060Z,164
2018-01-05T07:44:38.592Z,172
2018-01-05T07:45:04.061Z,164
2018-01-05T07:45:29.535Z,152
2018-01-05T07:45:55.049Z,140
2018-01-05T07:46:20.548Z,116
2018-01-05T07:46:46.057Z,128
2018-01-05T07:47:11.589Z,144
2018-01-05T07:47:37.089Z,152
2018-01-05T07:48:02.581Z,156
2018-01-05T07:48:28.068Z,148
2018-01-05T07:48:53.570Z,168
2018-01-05T07:49:19.052Z,224
2018-01-05T07:49:44.574Z,212
2018-01-05T07:50:10.068Z,196
2018-01-05T07:50:35.591Z,180
2018-01-05T07:51:01.126Z,168
2018-01-05T07:51:26.648Z,180
2018-01-05T07:51:52.137Z,204
2018-01-05T07:52:17.645Z,220
2018-01-05T07:53:41.661Z,220
2018-01-05T07:54:07.179Z,224
2018-01-05T07:54:32.631Z,248
2018-01-05T07:54:58.084Z,236
2018-01-05T07:55:23.576Z,216
2018-01-05T07:55:49.108Z,212
2018-01-05T07:56:14.607Z,216
2018-01-05T07:56:40.086Z,236
2018-01-05T07:57:05.542Z,244
2018-01-05T07:57:31.080Z,228
2018-01-05T07:57:56.604Z,268
2018-01-05T07:58:22.102Z,324
2018-01-05T07:58:47.626Z,304
2018-01-05T07:59:13.097Z,332
2018-01-05T07:59:38.574Z,364
2018-01-05T08:00:57.491Z,292
2018-01-05T08:01:22.956Z,320
2018-01-05T08:01:48.463Z,380
2018-01-05T08:02:13.929Z,400
2018-01-05T08:02:39.480Z,412
2018-01-05T08:03:04.968Z,404
2018-01-05T08:03:30.439Z,416
2018-01-05T08:03:55.925Z,396
2018-01-05T08:04:21.405Z,376
2018-01-05T08:04:46.888Z,448
2018-01-05T08:05:12.364Z,564
2018-01-05T08:05:37.822Z,592
2018-01-05T08:06:03.376Z,624
2018-01-05T08:06:28.843Z,664
2018-01-05T08:06:54.326Z,652
2018-01-05T08:07:19.818Z,556
2018-01-05T08:07:45.309Z,480
2018-01-05T08:08:10.792Z,468
2018-01-05T08:08:36.291Z,512
2018-01-05T08:09:01.790Z,536
2018-01-05T08:09:27.299Z,516
2018-01-05T08:09:52.774Z,568
2018-01-05T08:10:18.307Z,600
2018-01-05T08:10:43.796Z,640
2018-01-05T08:11:09.292Z,624
2018-01-05T08:11:34.764Z,624
2018-01-05T08:12:00.249Z,620
2018-01-05T08:12:25.748Z,556
2018-01-05T08:12:51.262Z,588
2018-01-05T08:13:16.742Z,600
2018-01-05T08:13:42.256Z,592
2018-01-05T08:14:07.738Z,548
2018-01-05T08:15:17.019Z,576
2018-01-05T08:15:42.509Z,600
2018-01-05T08:16:07.958Z,600
2018-01-05T08:16:33.446Z,592
2018-01-05T08:16:58.891Z,648
2018-01-05T08:17:24.371Z,672
2018-01-05T08:17:49.833Z,664
2018-01-05T08:18:15.285Z,672
2018-01-05T08:18:40.722Z,660
2018-01-05T08:19:06.173Z,652
2018-01-05T08:19:31.644Z,668
2018-01-05T08:19:57.129Z,660
2018-01-05T08:20:22.570Z,652
2018-01-05T08:20:48.053Z,644
2018-01-05T08:21:13.529Z,636
2018-01-05T08:21:39.007Z,688
2018-01-05T08:22:04.498Z,732
2018-01-05T08:22:29.952Z,752
2018-01-05T08:22:55.392Z,760
2018-01-05T08:23:58.983Z,780
2018-01-05T08:24:24.468Z,816
2018-01-05T08:24:49.955Z,844
2018-01-05T08:25:15.449Z,884
2018-01-05T08:25:40.945Z,1004
2018-01-05T08:26:06.413Z,1080
2018-01-05T08:26:31.907Z,1120
2018-01-05T08:26:57.405Z,1152
2018-01-05T08:27:22.880Z,1140
2018-01-05T08:27:48.379Z,1168
2018-01-05T08:28:13.906Z,1200
2018-01-05T08:28:39.378Z,1224
2018-01-05T08:29:04.859Z,1232
2018-01-05T08:29:30.322Z,1188
2018-01-05T08:29:55.793Z,1188
2018-01-05T08:30:21.267Z,1208
2018-01-05T08:30:46.738Z,1240
2018-01-05T08:31:12.253Z,1236
2018-01-05T08:31:37.823Z,1228
2018-01-05T08:32:03.342Z,1248
2018-01-05T08:32:28.780Z,1260
2018-01-05T08:32:54.269Z,1264
2018-01-05T08:33:19.762Z,1224
2018-01-05T08:33:45.234Z,1160
2018-01-05T08:34:10.679Z,1116
2018-01-05T08:34:36.159Z,1092
2018-01-05T08:35:01.653Z,1120
2018-01-05T08:35:27.155Z,1136
2018-01-05T08:35:52.641Z,1144
2018-01-05T08:36:18.151Z,1160
2018-01-05T08:36:43.620Z,1144
2018-01-05T08:37:09.164Z,1156
2018-01-05T08:37:34.697Z,1172
2018-01-05T08:38:00.169Z,1224
2018-01-05T08:38:25.665Z,1360
2018-01-05T08:38:51.106Z,1436
2018-01-05T08:39:54.703Z,1652
2018-01-05T08:40:20.194Z,1704
2018-01-05T08:40:45.712Z,1764
2018-01-05T08:41:11.194Z,1824
2018-01-05T08:41:36.693Z,1868
2018-01-05T08:42:02.232Z,1936
2018-01-05T08:42:27.738Z,1984
2018-01-05T08:42:53.240Z,2004
2018-01-05T08:43:18.716Z,2028
2018-01-05T08:43:44.212Z,2060
2018-01-05T08:44:09.760Z,2100
2018-01-05T08:44:35.252Z,2132
2018-01-05T08:45:00.880Z,2176
2018-01-05T08:45:26.361Z,2232
2018-01-05T08:45:51.863Z,2300
2018-01-05T08:46:17.316Z,2360
2018-01-05T08:46:42.866Z,2420
2018-01-05T08:47:08.350Z,2444
2018-01-05T08:47:33.817Z,2456
2018-01-05T08:47:59.314Z,2440
2018-01-05T08:48:24.793Z,2412
2018-01-05T08:48:50.255Z,2356
2018-01-05T08:49:15.754Z,2304
2018-01-05T08:49:41.262Z,2260
2018-01-05T08:50:06.786Z,2224
2018-01-05T08:50:32.303Z,2216
2018-01-05T08:50:57.784Z,2236
2018-01-05T08:51:23.295Z,2248
2018-01-05T08:51:48.775Z,2268
2018-01-05T08:52:14.236Z,2304
2018-01-05T08:52:39.710Z,2336
2018-01-05T08:53:05.181Z,2364
2018-01-05T08:53:30.685Z,2388
2018-01-05T08:54:44.522Z,2396
2018-01-05T08:55:10.024Z,2364
2018-01-05T08:55:35.521Z,2320
2018-01-05T08:56:00.992Z,2260
2018-01-05T08:56:26.476Z,2196
2018-01-05T08:56:51.932Z,2152
2018-01-05T08:57:17.459Z,2140
2018-01-05T08:57:42.940Z,2140
2018-01-05T08:58:08.480Z,2160
2018-01-05T08:58:33.987Z,2188
2018-01-05T08:58:59.482Z,2216
2018-01-05T08:59:24.973Z,2252
2018-01-05T08:59:50.485Z,2284
2018-01-05T09:00:16.001Z,2308
2018-01-05T09:00:41.458Z,2344
2018-01-05T09:01:55.263Z,2436
2018-01-05T09:02:20.772Z,2484
2018-01-05T09:02:46.249Z,2552
2018-01-05T09:03:11.715Z,2596
2018-01-05T09:03:37.232Z,2616
2018-01-05T09:04:40.867Z,2648
2018-01-05T09:05:06.365Z,2668
2018-01-05T09:05:31.845Z,2652
2018-01-05T09:06:35.452Z,2572
2018-01-05T09:07:00.970Z,2552
2018-01-05T09:07:26.497Z,2540
2018-01-05T09:07:52.000Z,2532
2018-01-05T09:09:00.238Z,2628
2018-01-05T09:09:25.708Z,2660
2018-01-05T09:10:44.609Z,2700
2018-01-05T09:11:10.097Z,2720
2018-01-05T09:11:35.647Z,2756
2018-01-05T09:12:01.246Z,2820
2018-01-05T09:12:26.704Z,2884
2018-01-05T09:12:52.197Z,2952
2018-01-05T09:13:17.701Z,3028
2018-01-05T09:13:43.199Z,3084
2018-01-05T09:14:08.692Z,3124
2018-01-05T09:14:34.151Z,3192
2018-01-05T09:14:59.656Z,3268
2018-01-05T09:15:25.180Z,3328
2018-01-05T09:15:50.696Z,3360
2018-01-05T09:16:16.214Z,3388
2018-01-05T09:16:41.681Z,3380
2018-01-05T09:17:07.172Z,3336
2018-01-05T09:17:32.665Z,3264
2018-01-05T09:17:58.134Z,3208
2018-01-05T09:18:23.609Z,3224
2018-01-05T09:18:49.104Z,3184
2018-01-05T09:19:14.582Z,3136
2018-01-05T09:19:40.133Z,3044
2018-01-05T09:20:05.608Z,3016
2018-01-05T09:20:31.088Z,3024
2018-01-05T09:20:56.577Z,3000
2018-01-05T09:21:22.114Z,2980
2018-01-05T09:21:47.594Z,3004
2018-01-05T09:22:13.108Z,3024
2018-01-05T09:23:26.960Z,2956
2018-01-05T09:23:52.422Z,2912
2018-01-05T09:24:17.881Z,2872
2018-01-05T09:24:43.335Z,2816
2018-01-05T09:25:08.762Z,2684
2018-01-05T09:25:34.219Z,2548
2018-01-05T09:25:59.754Z,2504
2018-01-05T09:27:03.346Z,2564
2018-01-05T09:27:28.814Z,2524
2018-01-05T09:28:47.280Z,2112
2018-01-05T09:29:12.765Z,2028
2018-01-05T09:29:38.247Z,1928
2018-01-05T09:30:03.738Z,1848
2018-01-05T09:30:29.215Z,1860
2018-01-05T09:30:54.703Z,1916
2018-01-05T09:31:20.218Z,1976
2018-01-05T09:31:45.708Z,2172
2018-01-05T09:32:11.173Z,2332
2018-01-05T09:32:36.673Z,2432
2018-01-05T09:33:02.173Z,2500
2018-01-05T09:33:27.699Z,2396
2018-01-05T09:33:53.214Z,2284
2018-01-05T09:34:18.683Z,2388
2018-01-05T09:34:44.215Z,2436
2018-01-05T09:35:09.750Z,2528
2018-01-05T09:35:35.225Z,2600
2018-01-05T09:36:00.722Z,2596
2018-01-05T09:36:26.239Z,2396
2018-01-05T09:36:51.750Z,2104
2018-01-05T09:38:05.561Z,2320
2018-01-05T09:38:31.077Z,2252
2018-01-05T09:38:56.527Z,2108
2018-01-05T09:39:22.053Z,2216
2018-01-05T09:39:47.539Z,2136
2018-01-05T09:40:13.036Z,1896
2018-01-05T09:40:38.518Z,1968
2018-01-05T09:41:04.010Z,1964
2018-01-05T09:41:29.481Z,2096
2018-01-05T09:41:54.922Z,2484
2018-01-05T09:42:20.429Z,2644
2018-01-05T09:42:45.915Z,2532
2018-01-05T09:43:11.416Z,2252
2018-01-05T09:43:36.906Z,2112
2018-01-05T09:44:02.408Z,1944
2018-01-05T09:44:27.916Z,1744
2018-01-05T09:44:53.411Z,1648
2018-01-05T09:45:18.899Z,1608
2018-01-05T09:45:44.439Z,1532
2018-01-05T09:46:53.169Z,1548
2018-01-05T09:47:18.652Z,1908
2018-01-05T09:47:44.155Z,2488
2018-01-05T09:48:09.651Z,2840
2018-01-05T09:48:35.135Z,2952
2018-01-05T09:49:00.628Z,2940
2018-01-05T09:49:26.172Z,2752
2018-01-05T09:49:51.675Z,2404
2018-01-05T09:50:17.159Z,2232
2018-01-05T09:50:42.614Z,2216
2018-01-05T09:51:08.101Z,2144
2018-01-05T09:51:33.585Z,1808
2018-01-05T09:51:59.134Z,1676
2018-01-05T09:52:24.640Z,1628
2018-01-05T09:52:50.118Z,1540
2018-01-05T09:53:15.592Z,1984
2018-01-05T09:53:41.056Z,2056
2018-01-05T09:54:06.565Z,1724
2018-01-05T09:54:32.035Z,1716
2018-01-05T09:54:57.529Z,1716
2018-01-05T09:55:22.945Z,1512
2018-01-05T09:55:48.408Z,1352
2018-01-05T09:56:13.901Z,1348
2018-01-05T09:56:39.397Z,1240
2018-01-05T09:57:04.893Z,1080
2018-01-05T09:57:30.382Z,940
2018-01-05T09:57:55.897Z,960
2018-01-05T09:58:21.388Z,1008
2018-01-05T09:58:46.837Z,960
2018-01-05T09:59:12.342Z,932
2018-01-05T09:59:37.821Z,1004
2018-01-05T10:00:03.298Z,1168
2018-01-05T10:00:28.853Z,1284
2018-01-05T10:00:54.272Z,1400
2018-01-05T10:01:19.763Z,1556
2018-01-05T10:01:45.258Z,1572
2018-01-05T10:02:10.748Z,1624
2018-01-05T10:02:36.230Z,1716
2018-01-05T10:03:01.709Z,1620
2018-01-05T10:03:27.162Z,1392
2018-01-05T10:03:52.660Z,1252
2018-01-05T10:05:01.380Z,1528
2018-01-05T10:05:26.885Z,1496
2018-01-05T10:05:52.365Z,1560
2018-01-05T10:06:17.837Z,1708
2018-01-05T10:06:43.310Z,1796
2018-01-05T10:07:08.846Z,1916
2018-01-05T10:07:34.351Z,2004
2018-01-05T10:07:59.816Z,2136
2018-01-05T10:08:25.317Z,2092
2018-01-05T10:08:50.845Z,2088
2018-01-05T10:09:16.279Z,2292
2018-01-05T10:09:41.749Z,2308
2018-01-05T10:10:07.220Z,1924
2018-01-05T10:10:32.733Z,1752
2018-01-05T10:10:58.226Z,1680
2018-01-05T10:11:23.728Z,1612
2018-01-05T10:11:49.260Z,1640
2018-01-05T10:12:14.781Z,1884
2018-01-05T10:12:40.324Z,2080
2018-01-05T10:13:49.043Z,2480
2018-01-05T10:14:14.548Z,2604
2018-01-05T10:14:40.024Z,2720
2018-01-05T10:15:05.495Z,2892
2018-01-05T10:15:31.003Z,3132
2018-01-05T10:15:56.485Z,3372
2018-01-05T10:16:22.005Z,3528
2018-01-05T10:16:47.460Z,3560
2018-01-05T10:17:12.979Z,3604
2018-01-05T10:17:38.488Z,3428
2018-01-05T10:18:52.340Z,3108
2018-01-05T10:19:17.832Z,3044
2018-01-05T10:19:43.292Z,3280
2018-01-05T10:20:08.780Z,3432
2018-01-05T10:20:34.289Z,3288
2018-01-05T10:20:59.741Z,3096
2018-01-05T10:21:25.216Z,3024
2018-01-05T10:21:50.746Z,3088
2018-01-05T10:22:54.391Z,3032
2018-01-05T10:23:19.898Z,2924
2018-01-05T10:23:45.406Z,2572
2018-01-05T10:24:10.852Z,2088
2018-01-05T10:24:36.356Z,2068
2018-01-05T10:25:01.898Z,2168
2018-01-05T10:25:27.400Z,2376
2018-01-05T10:25:52.969Z,2376
2018-01-05T10:26:18.445Z,2372
2018-01-05T10:26:43.945Z,2528
2018-01-05T10:27:09.433Z,2916
2018-01-05T10:27:34.923Z,3124
2018-01-05T10:28:00.399Z,2940
2018-01-05T10:28:25.876Z,2748
2018-01-05T10:28:51.444Z,2604
2018-01-05T10:29:16.888Z,2572
2018-01-05T10:30:20.524Z,2380
2018-01-05T10:31:39.493Z,2676
2018-01-05T10:32:04.989Z,2368
2018-01-05T10:32:30.501Z,2348
2018-01-05T10:32:56.118Z,2456
2018-01-05T10:33:21.595Z,2432
2018-01-05T10:33:47.098Z,2580
2018-01-05T10:34:12.587Z,2904
2018-01-05T10:34:38.080Z,3128
2018-01-05T10:35:03.558Z,3332
2018-01-05T10:35:29.051Z,3368
2018-01-05T10:35:54.620Z,3384
2018-01-05T10:36:20.102Z,3460
2018-01-05T10:36:45.614Z,3384
2018-01-05T10:37:11.150Z,3048
2018-01-05T10:37:36.646Z,2636
2018-01-05T10:38:02.152Z,2680
2018-01-05T10:38:27.634Z,2872
2018-01-05T10:38:53.134Z,2736
2018-01-05T10:39:18.615Z,2660
2018-01-05T10:39:44.134Z,2844
2018-01-05T10:40:09.693Z,2964
2018-01-05T10:40:35.178Z,2832
2018-01-05T10:41:00.666Z,2660
2018-01-05T10:41:26.159Z,2596
2018-01-05T10:41:51.652Z,2696
2018-01-05T10:42:17.131Z,2900
2018-01-05T10:42:42.633Z,2904
2018-01-05T10:43:08.101Z,2872
2018-01-05T10:43:33.619Z,2940
2018-01-05T10:43:59.093Z,3092
2018-01-05T10:44:24.571Z,3132
2018-01-05T10:45:48.630Z,3600
2018-01-05T10:46:14.118Z,3660
2018-01-05T10:46:39.640Z,3800
2018-01-05T10:47:05.142Z,3980
2018-01-05T10:47:30.638Z,3924
2018-01-05T10:47:56.120Z,3696
2018-01-05T10:48:21.603Z,3440
2018-01-05T10:49:35.435Z,3520
2018-01-05T10:50:00.924Z,3880
2018-01-05T10:50:26.421Z,4124
2018-01-05T10:50:51.935Z,3964
2018-01-05T10:51:55.553Z,3376
2018-01-05T10:52:21.048Z,3280
2018-01-05T10:52:46.532Z,2808
2018-01-05T10:53:12.055Z,2460
2018-01-05T10:53:37.559Z,2500
2018-01-05T10:54:03.088Z,2588
2018-01-05T10:54:28.597Z,3052
2018-01-05T10:54:54.097Z,3768
2018-01-05T10:55:19.608Z,3928
2018-01-05T10:55:45.078Z,3696
2018-01-05T10:56:10.608Z,3844
2018-01-05T10:56:36.071Z,3892
2018-01-05T10:57:44.782Z,4216
2018-01-05T10:58:10.254Z,4444
2018-01-05T10:58:35.813Z,4692
2018-01-05T10:59:01.268Z,4736
2018-01-05T11:00:25.297Z,4480
2018-01-05T11:00:50.799Z,5052
2018-01-05T11:01:16.291Z,5172
2018-01-05T11:01:41.805Z,5284
2018-01-05T11:02:07.352Z,5440
2018-01-05T11:02:32.850Z,5532
2018-01-05T11:02:58.329Z,5408
2018-01-05T11:03:23.827Z,5040
2018-01-05T11:03:49.300Z,4920
2018-01-05T11:04:14.810Z,4796
2018-01-05T11:04:40.273Z,4644
2018-01-05T11:05:05.802Z,4560
2018-01-05T11:05:31.306Z,4616
2018-01-05T11:05:56.783Z,4656
2018-01-05T11:06:22.310Z,4748
2018-01-05T11:06:47.780Z,4600
2018-01-05T11:07:13.279Z,4508
2018-01-05T11:07:38.770Z,4436
2018-01-05T11:08:04.232Z,4412
2018-01-05T11:08:29.733Z,4460
2018-01-05T11:08:55.190Z,4448
2018-01-05T11:09:20.717Z,4528
2018-01-05T11:09:46.199Z,4600
2018-01-05T11:10:11.656Z,4652
2018-01-05T11:10:37.162Z,4708
2018-01-05T11:11:02.644Z,4816
2018-01-05T11:11:28.120Z,5040
2018-01-05T11:11:53.634Z,5208
2018-01-05T11:12:19.127Z,5340
2018-01-05T11:12:44.586Z,5412
2018-01-05T11:13:10.074Z,5420
2018-01-05T11:14:28.988Z,5000
2018-01-05T11:14:54.475Z,4888
2018-01-05T11:15:19.968Z,4800
2018-01-05T11:15:45.477Z,4792
2018-01-05T11:16:11.009Z,4780
2018-01-05T11:16:36.501Z,4824
2018-01-05T11:17:02.020Z,4836
2018-01-05T11:17:27.498Z,4824
2018-01-05T11:17:52.961Z,4808
2018-01-05T11:18:18.457Z,4804
2018-01-05T11:18:43.953Z,4740
2018-01-05T11:19:09.440Z,4620
2018-01-05T11:19:34.913Z,4484
2018-01-05T11:20:00.379Z,4312
2018-01-05T11:20:25.851Z,4136
2018-01-05T11:20:51.339Z,4036
2018-01-05T11:21:16.916Z,3976
2018-01-05T11:21:42.413Z,3980
2018-01-05T11:22:07.869Z,4004
2018-01-05T11:22:33.374Z,3988
2018-01-05T11:22:58.889Z,3832
2018-01-05T11:23:24.331Z,3788
2018-01-05T11:23:49.817Z,3780
2018-01-05T11:24:15.350Z,3784
2018-01-05T11:24:40.819Z,3876